Flight Track Log - Related Links

Times and Time Zones

All times are in EDT time to prevent confusion due to time zone crossing. See the UAL3773 flight status page for this flight to view local times or setup timezone preferences in your user account.

Time Position Orientation Groundspeed Altitude Reporting Facility
EDT Latitude Longitude Course Direction KTS MPH feet Rate Location/Type
Mon 10:36:42 AM 35.1928 -80.9356 182° South 163 188 1,400  Level Atlanta Center
Mon 10:37:07 AM 35.1761 -80.9361 182° South 161 185 2,300 1,519 Climbing Atlanta Center
Mon 10:38:01 AM 35.1275 -80.9025 151° Southeast 243 280 3,400 2,139 Climbing Atlanta Center
Mon 10:39:02 AM 35.0961 -80.8200 115° Southeast 296 341 6,400 2,557 Climbing Atlanta Center
Mon 10:40:03 AM 35.1022 -80.7358 85° East 300 345 8,600 2,281 Climbing Atlanta Center
Mon 10:41:03 AM 35.1267 -80.6358 73° East 314 361 11,000 2,000 Climbing Atlanta Center
Mon 10:42:03 AM 35.2083 -80.5792 30° Northeast 310 357 12,600 1,980 Climbing Atlanta Center
Mon 10:44:26 AM 35.3731 -80.3428 49° Northeast 372 428 17,700 2,069 Climbing Washington Center
Mon 10:45:26 AM 35.4117 -80.2100 70° East 392 451 19,600 1,750 Climbing Washington Center
Mon 10:46:26 AM 35.4503 -80.0769 70° East 418 481 21,200 1,450 Climbing Washington Center
Mon 10:47:26 AM 35.4817 -79.9564 72° East 418 481 22,500 1,500 Climbing Washington Center
Mon 10:48:26 AM 35.5161 -79.8128 74° East 418 481 24,200 1,350 Climbing Washington Center
Mon 10:49:26 AM 35.5544 -79.6719 71° East 418 481 25,200 1,100 Climbing Washington Center
Mon 10:50:26 AM 35.5908 -79.5203 74° East 444 511 26,400 900 Climbing Washington Center
Mon 10:51:26 AM 35.6372 -79.3769 68° East 451 519 27,000 300 Climbing Washington Center
Mon 10:52:26 AM 35.6958 -79.2339 63° Northeast 451 519 27,000  Level Washington Center
Mon 10:53:26 AM 35.7925 -79.1464 36° Northeast 431 496 27,000  Level Washington Center
Mon 10:54:26 AM 35.9011 -79.0667 31° Northeast 431 496 27,000  Level Washington Center
Mon 10:55:26 AM 36.0164 -78.9792 32° Northeast 437 503 27,000  Level Washington Center
Mon 10:56:26 AM 36.1231 -78.8989 31° Northeast 442 509 27,000  Level Washington Center
Mon 10:57:26 AM 36.2314 -78.8211 30° Northeast 442 509 27,000  Level Washington Center
Mon 10:58:26 AM 36.3358 -78.7428 31° Northeast 442 509 27,000  Level Washington Center
Mon 10:59:26 AM 36.4358 -78.6669 31° Northeast 434 499 27,000  Level Washington Center
Mon 11:00:26 AM 36.5314 -78.5956 31° Northeast 423 487 27,000 -250 Level Washington Center
Mon 11:01:26 AM 36.6144 -78.5317 32° Northeast 383 441 26,500 -750 Descending Washington Center
Mon 11:02:26 AM 36.6994 -78.4647 32° Northeast 361 415 25,500 -750 Descending Washington Center
Mon 11:03:26 AM 36.7867 -78.4006 31° Northeast 361 415 25,000 -600 Descending Washington Center
Mon 11:04:26 AM 36.8717 -78.3361 31° Northeast 356 410 24,300 -850 Descending Washington Center
Mon 11:05:26 AM 36.9503 -78.2739 32° Northeast 356 410 23,300 -950 Descending Washington Center
Mon 11:06:26 AM 37.0372 -78.2069 32° Northeast 362 417 22,400 -650 Descending Washington Center
Mon 11:07:26 AM 37.1242 -78.1394 32° Northeast 362 417 22,000 -200 Descending Washington Center
Mon 11:08:26 AM 37.2067 -78.0794 30° Northeast 344 396 22,000  Level Washington Center
Mon 11:09:26 AM 37.2831 -78.0194 32° Northeast 344 396 22,000 -300 Level Washington Center
Mon 11:10:26 AM 37.3658 -77.9567 31° Northeast 349 402 21,400 -1,050 Descending Washington Center
Mon 11:11:26 AM 37.4506 -77.8914 31° Northeast 349 402 19,900 -1,500 Descending Washington Center
Mon 11:12:26 AM 37.5308 -77.8283 32° Northeast 349 402 18,400 -1,400 Descending Washington Center
Mon 11:13:26 AM 37.6153 -77.7783 25° Northeast 341 392 17,100 -1,300 Descending Washington Center
Mon 11:14:26 AM 37.6997 -77.7283 25° Northeast 324 373 15,800 -1,300 Descending Washington Center
Mon 11:15:26 AM 37.7817 -77.6806 25° Northeast 324 373 14,500 -1,300 Descending Washington Center
Mon 11:16:26 AM 37.8575 -77.6353 25° Northeast 314 361 13,200 -1,250 Descending Washington Center
Mon 11:17:26 AM 37.9333 -77.5900 25° Northeast 303 349 12,000 -1,100 Descending Washington Center
Mon 11:18:26 AM 38.0114 -77.5447 25° Northeast 303 349 11,000 -900 Descending Washington Center
Mon 11:19:26 AM 38.0914 -77.4992 24° Northeast 303 349 10,200 -500 Descending Washington Center
Mon 11:20:26 AM 38.1711 -77.4697 16° North 298 343 10,000 -200 Descending Washington Center
Mon 11:21:26 AM 38.2547 -77.4506 10° North 293 337 9,800 -850 Descending Washington Center
Mon 11:22:26 AM 38.3386 -77.4314 10° North 293 337 8,300 -1,450 Descending Washington Center
Mon 11:23:26 AM 38.4222 -77.4069 13° North 300 345 6,900 -1,300 Descending Washington Center
Mon 11:24:26 AM 38.5017 -77.3878 11° North 295 339 5,700 -950 Descending Washington Center
Mon 11:25:26 AM 38.5772 -77.3683 11° North 290 334 5,000 -800 Descending Washington Center
Mon 11:26:26 AM 38.6647 -77.3625 North 279 321 4,100 -500 Descending Washington Center
Mon 11:27:26 AM 38.7400 -77.3589 North 279 321 4,000 -45 Descending Washington Center
Mon 11:28:38 AM 38.8333 -77.3500 North 287 330 4,000 -226 Level Potomac TRACON
Mon 11:29:39 AM 38.9167 -77.3500 360° North 282 325 3,500 -496 Descending Potomac TRACON
Mon 11:30:39 AM 39.0000 -77.3500 360° North 263 303 3,000 -700 Descending Potomac TRACON
Mon 11:31:39 AM 39.0500 -77.3667 345° North 235 270 2,100 -496 Descending Potomac TRACON
Mon 11:32:40 AM 39.0500 -77.4333 270° West 193 222 2,000 -98 Descending Potomac TRACON

Login

Don't have an account? Register now (free) for customized features, flight alerts, and more!